Ridgway, Illinois
Current Conditions -  °F | °C
As of 8:15 PM on Saturday 22 Nov 2014 (Local Time) from KHSB Reporting Station
Broken Clouds Broken Clouds  
Wind Chill: 60°   Ceiling: 4500
Heat Index: 60°   Visibility: 10mi
Dew Point: 37°   Wind: 12mph
Humidity: 41%   Direction: 200°SSW
Pressure: 30.02"   Gusts: 21mph
Location:  37.8°N, 88.26°W
Report Text: KHSB 230215Z AUTO 20010G18KT 10SM BKN045 BKN065 BKN080 16/03 A3002 RMK AO2 T01580025
Loading
Personal Weather Stations






























Interactive Weather Map New forecast layout! Learn more

10-Day Weather Forecast

Advertisements
Track Severe Weather on mobile